ADDS METAR Data INFO
IDs: Format: Raw Decoded Include TAF

Data at: 1520 UTC 21 Jul 2017

METAR for:KHSE (Hatteras/Mitchell Fl, NC, US)
Text:KHSE 211451Z AUTO 23007KT 10SM CLR 29/24 A3003 RMK AO2 SLP168 T02940244 51007 TSNO
Temperature: 29.4°C ( 85°F)
Dewpoint: 24.4°C ( 76°F) [RH = 75%]
Pressure (altimeter):30.03 inches Hg (1017.0 mb) [Sea level pressure: 1016.8 mb]
Winds:from the SW (230 degrees) at 8 MPH (7 knots; 3.6 m/s)
Visibility:10 or more sm (16+ km)
Ceiling:at least 12,000 feet AGL
Clouds:sky clear below 12,000 feet AGL
QC Flag:automated observation with no human augmentation
Text:KHSE 211351Z AUTO 24007KT 10SM CLR 28/24 A3002 RMK AO2 SLP166 T02830244 TSNO
Temperature: 28.3°C ( 83°F)
Dewpoint: 24.4°C ( 76°F) [RH = 79%]
Pressure (altimeter):30.02 inches Hg (1016.7 mb) [Sea level pressure: 1016.6 mb]
Winds:from the WSW (240 degrees) at 8 MPH (7 knots; 3.6 m/s)
Visibility:10 or more sm (16+ km)
Ceiling:at least 12,000 feet AGL
Clouds:sky clear below 12,000 feet AGL
QC Flag:automated observation with no human augmentation
Text:KHSE 211251Z AUTO 24007KT 10SM CLR 27/24 A3002 RMK AO2 SLP165 T02720239 TSNO
Temperature: 27.2°C ( 81°F)
Dewpoint: 23.9°C ( 75°F) [RH = 82%]
Pressure (altimeter):30.02 inches Hg (1016.7 mb) [Sea level pressure: 1016.5 mb]
Winds:from the WSW (240 degrees) at 8 MPH (7 knots; 3.6 m/s)
Visibility:10 or more sm (16+ km)
Ceiling:at least 12,000 feet AGL
Clouds:sky clear below 12,000 feet AGL
QC Flag:automated observation with no human augmentation
Text:KHSE 211151Z AUTO 24008KT 10SM CLR 27/24 A3001 RMK AO2 SLP161 T02670239 10267 20256 53011 TSNO
Temperature: 26.7°C ( 80°F)
Dewpoint: 23.9°C ( 75°F) [RH = 85%]
Pressure (altimeter):30.01 inches Hg (1016.3 mb) [Sea level pressure: 1016.1 mb]
Winds:from the WSW (240 degrees) at 9 MPH (8 knots; 4.1 m/s)
Visibility:10 or more sm (16+ km)
Ceiling:at least 12,000 feet AGL
Clouds:sky clear below 12,000 feet AGL
QC Flag:automated observation with no human augmentation
Text:KHSE 211051Z AUTO 24005KT 10SM CLR 26/24 A3000 RMK AO2 SLP157 T02610239 TSNO
Temperature: 26.1°C ( 79°F)
Dewpoint: 23.9°C ( 75°F) [RH = 88%]
Pressure (altimeter):30.00 inches Hg (1016.0 mb) [Sea level pressure: 1015.7 mb]
Winds:from the WSW (240 degrees) at 6 MPH (5 knots; 2.6 m/s)
Visibility:10 or more sm (16+ km)
Ceiling:at least 12,000 feet AGL
Clouds:sky clear below 12,000 feet AGL
QC Flag:automated observation with no human augmentation
Text:KHSE 210951Z AUTO 24004KT 10SM CLR 26/23 A2998 RMK AO2 SLP153 T02560233 TSNO
Temperature: 25.6°C ( 78°F)
Dewpoint: 23.3°C ( 74°F) [RH = 87%]
Pressure (altimeter):29.98 inches Hg (1015.3 mb) [Sea level pressure: 1015.3 mb]
Winds:from the WSW (240 degrees) at 5 MPH (4 knots; 2.1 m/s)
Visibility:10 or more sm (16+ km)
Ceiling:at least 12,000 feet AGL
Clouds:sky clear below 12,000 feet AGL
QC Flag:automated observation with no human augmentation
Text:KHSE 210851Z AUTO 26004KT 10SM CLR 26/24 A2998 RMK AO2 SLP150 T02610239 58010 TSNO
Temperature: 26.1°C ( 79°F)
Dewpoint: 23.9°C ( 75°F) [RH = 88%]
Pressure (altimeter):29.98 inches Hg (1015.3 mb) [Sea level pressure: 1015.0 mb]
Winds:from the W (260 degrees) at 5 MPH (4 knots; 2.1 m/s)
Visibility:10 or more sm (16+ km)
Ceiling:at least 12,000 feet AGL
Clouds:sky clear below 12,000 feet AGL
QC Flag:automated observation with no human augmentation
Text:KHSE 210751Z AUTO 24005KT 10SM FEW014 26/24 A2999 RMK AO2 SLP154 T02610239 TSNO
Temperature: 26.1°C ( 79°F)
Dewpoint: 23.9°C ( 75°F) [RH = 88%]
Pressure (altimeter):29.99 inches Hg (1015.7 mb) [Sea level pressure: 1015.4 mb]
Winds:from the WSW (240 degrees) at 6 MPH (5 knots; 2.6 m/s)
Visibility:10 or more sm (16+ km)
Ceiling:at least 12,000 feet AGL
Clouds: few clouds at 1400 feet AGL
QC Flag:automated observation with no human augmentation
Text:KHSE 210651Z AUTO 25005KT 10SM CLR 26/24 A3001 RMK AO2 SLP160 T02610239 TSNO
Temperature: 26.1°C ( 79°F)
Dewpoint: 23.9°C ( 75°F) [RH = 88%]
Pressure (altimeter):30.01 inches Hg (1016.3 mb) [Sea level pressure: 1016.0 mb]
Winds:from the WSW (250 degrees) at 6 MPH (5 knots; 2.6 m/s)
Visibility:10 or more sm (16+ km)
Ceiling:at least 12,000 feet AGL
Clouds:sky clear below 12,000 feet AGL
QC Flag:automated observation with no human augmentation
Text:KHSE 210551Z AUTO 24006KT 10SM CLR 26/23 A3001 RMK AO2 SLP160 T02610233 10278 20261 58007 TSNO
Temperature: 26.1°C ( 79°F)
Dewpoint: 23.3°C ( 74°F) [RH = 85%]
Pressure (altimeter):30.01 inches Hg (1016.3 mb) [Sea level pressure: 1016.0 mb]
Winds:from the WSW (240 degrees) at 7 MPH (6 knots; 3.1 m/s)
Visibility:10 or more sm (16+ km)
Ceiling:at least 12,000 feet AGL
Clouds:sky clear below 12,000 feet AGL
QC Flag:automated observation with no human augmentation
Text:KHSE 210451Z AUTO 24007KT 10SM CLR 27/24 A3002 RMK AO2 SLP167 T02670239 403110233 TSNO
Temperature: 26.7°C ( 80°F)
Dewpoint: 23.9°C ( 75°F) [RH = 85%]
Pressure (altimeter):30.02 inches Hg (1016.7 mb) [Sea level pressure: 1016.7 mb]
Winds:from the WSW (240 degrees) at 8 MPH (7 knots; 3.6 m/s)
Visibility:10 or more sm (16+ km)
Ceiling:at least 12,000 feet AGL
Clouds:sky clear below 12,000 feet AGL
QC Flag:automated observation with no human augmentation
Text:KHSE 210351Z AUTO 24007KT 10SM CLR 27/23 A3003 RMK AO2 SLP169 T02670233 TSNO
Temperature: 26.7°C ( 80°F)
Dewpoint: 23.3°C ( 74°F) [RH = 82%]
Pressure (altimeter):30.03 inches Hg (1017.0 mb) [Sea level pressure: 1016.9 mb]
Winds:from the WSW (240 degrees) at 8 MPH (7 knots; 3.6 m/s)
Visibility:10 or more sm (16+ km)
Ceiling:at least 12,000 feet AGL
Clouds:sky clear below 12,000 feet AGL
QC Flag:automated observation with no human augmentation
Text:KHSE 210251Z AUTO 23008KT 10SM CLR 27/23 A3003 RMK AO2 SLP168 T02720233 51013 TSNO
Temperature: 27.2°C ( 81°F)
Dewpoint: 23.3°C ( 74°F) [RH = 79%]
Pressure (altimeter):30.03 inches Hg (1017.0 mb) [Sea level pressure: 1016.8 mb]
Winds:from the SW (230 degrees) at 9 MPH (8 knots; 4.1 m/s)
Visibility:10 or more sm (16+ km)
Ceiling:at least 12,000 feet AGL
Clouds:sky clear below 12,000 feet AGL
QC Flag:automated observation with no human augmentation
Text:KHSE 210151Z AUTO 22008KT 10SM CLR 27/23 A3002 RMK AO2 SLP165 T02720233 TSNO
Temperature: 27.2°C ( 81°F)
Dewpoint: 23.3°C ( 74°F) [RH = 79%]
Pressure (altimeter):30.02 inches Hg (1016.7 mb) [Sea level pressure: 1016.5 mb]
Winds:from the SW (220 degrees) at 9 MPH (8 knots; 4.1 m/s)
Visibility:10 or more sm (16+ km)
Ceiling:at least 12,000 feet AGL
Clouds:sky clear below 12,000 feet AGL
QC Flag:automated observation with no human augmentation
Text:KHSE 210051Z AUTO 24005KT 10SM CLR 27/23 A3000 RMK AO2 SLP158 T02720228 TSNO
Temperature: 27.2°C ( 81°F)
Dewpoint: 22.8°C ( 73°F) [RH = 77%]
Pressure (altimeter):30.00 inches Hg (1016.0 mb) [Sea level pressure: 1015.8 mb]
Winds:from the WSW (240 degrees) at 6 MPH (5 knots; 2.6 m/s)
Visibility:10 or more sm (16+ km)
Ceiling:at least 12,000 feet AGL
Clouds:sky clear below 12,000 feet AGL
QC Flag:automated observation with no human augmentation
Text:KHSE 202351Z AUTO 22005KT 10SM CLR 28/23 A2999 RMK AO2 SLP155 T02780228 10311 20278 56009 TSNO
Temperature: 27.8°C ( 82°F)
Dewpoint: 22.8°C ( 73°F) [RH = 74%]
Pressure (altimeter):29.99 inches Hg (1015.7 mb) [Sea level pressure: 1015.5 mb]
Winds:from the SW (220 degrees) at 6 MPH (5 knots; 2.6 m/s)
Visibility:10 or more sm (16+ km)
Ceiling:at least 12,000 feet AGL
Clouds:sky clear below 12,000 feet AGL
QC Flag:automated observation with no human augmentation
Text:KHSE 202251Z AUTO 22005KT 10SM CLR 28/23 A2999 RMK AO2 SLP156 T02830233 TSNO
Temperature: 28.3°C ( 83°F)
Dewpoint: 23.3°C ( 74°F) [RH = 74%]
Pressure (altimeter):29.99 inches Hg (1015.7 mb) [Sea level pressure: 1015.6 mb]
Winds:from the SW (220 degrees) at 6 MPH (5 knots; 2.6 m/s)
Visibility:10 or more sm (16+ km)
Ceiling:at least 12,000 feet AGL
Clouds:sky clear below 12,000 feet AGL
QC Flag:automated observation with no human augmentation
Text:KHSE 202151Z AUTO 21006KT 10SM CLR 29/23 A3000 RMK AO2 SLP159 T02940228 TSNO
Temperature: 29.4°C ( 85°F)
Dewpoint: 22.8°C ( 73°F) [RH = 68%]
Pressure (altimeter):30.00 inches Hg (1016.0 mb) [Sea level pressure: 1015.9 mb]
Winds:from the SSW (210 degrees) at 7 MPH (6 knots; 3.1 m/s)
Visibility:10 or more sm (16+ km)
Ceiling:at least 12,000 feet AGL
Clouds:sky clear below 12,000 feet AGL
QC Flag:automated observation with no human augmentation
Text:KHSE 202051Z AUTO 20008KT 10SM CLR 30/23 A3002 RMK AO2 SLP164 T03000233 58017 TSNO
Temperature: 30.0°C ( 86°F)
Dewpoint: 23.3°C ( 74°F) [RH = 67%]
Pressure (altimeter):30.02 inches Hg (1016.7 mb) [Sea level pressure: 1016.4 mb]
Winds:from the SSW (200 degrees) at 9 MPH (8 knots; 4.1 m/s)
Visibility:10 or more sm (16+ km)
Ceiling:at least 12,000 feet AGL
Clouds:sky clear below 12,000 feet AGL
QC Flag:automated observation with no human augmentation
Text:KHSE 201951Z AUTO 21005KT 10SM CLR 31/23 A3004 RMK AO2 SLP173 T03060228 TSNO
Temperature: 30.6°C ( 87°F)
Dewpoint: 22.8°C ( 73°F) [RH = 63%]
Pressure (altimeter):30.04 inches Hg (1017.4 mb) [Sea level pressure: 1017.3 mb]
Winds:from the SSW (210 degrees) at 6 MPH (5 knots; 2.6 m/s)
Visibility:10 or more sm (16+ km)
Ceiling:at least 12,000 feet AGL
Clouds:sky clear below 12,000 feet AGL
QC Flag:automated observation with no human augmentation
Text:KHSE 201851Z AUTO 22005KT 10SM CLR 29/23 A3006 RMK AO2 SLP177 T02940233 TSNO
Temperature: 29.4°C ( 85°F)
Dewpoint: 23.3°C ( 74°F) [RH = 70%]
Pressure (altimeter):30.06 inches Hg (1018.0 mb) [Sea level pressure: 1017.7 mb]
Winds:from the SW (220 degrees) at 6 MPH (5 knots; 2.6 m/s)
Visibility:10 or more sm (16+ km)
Ceiling:at least 12,000 feet AGL
Clouds:sky clear below 12,000 feet AGL
QC Flag:automated observation with no human augmentation
Text:KHSE 201751Z AUTO 22005KT 10SM CLR 30/23 A3006 RMK AO2 SLP180 T03000233 10311 20272 58001 TSNO
Temperature: 30.0°C ( 86°F)
Dewpoint: 23.3°C ( 74°F) [RH = 67%]
Pressure (altimeter):30.06 inches Hg (1018.0 mb) [Sea level pressure: 1018.0 mb]
Winds:from the SW (220 degrees) at 6 MPH (5 knots; 2.6 m/s)
Visibility:10 or more sm (16+ km)
Ceiling:at least 12,000 feet AGL
Clouds:sky clear below 12,000 feet AGL
QC Flag:automated observation with no human augmentation
Text:KHSE 201651Z AUTO 15006KT 10SM CLR 31/24 A3007 RMK AO2 SLP184 T03060244 TSNO
Temperature: 30.6°C ( 87°F)
Dewpoint: 24.4°C ( 76°F) [RH = 70%]
Pressure (altimeter):30.07 inches Hg (1018.4 mb) [Sea level pressure: 1018.4 mb]
Winds:from the SSE (150 degrees) at 7 MPH (6 knots; 3.1 m/s)
Visibility:10 or more sm (16+ km)
Ceiling:at least 12,000 feet AGL
Clouds:sky clear below 12,000 feet AGL
QC Flag:automated observation with no human augmentation
Text:KHSE 201558Z AUTO 14006KT 10SM FEW020 SCT026 SCT033 31/24 A3009 RMK AO2 T03060239 TSNO
Temperature: 30.6°C ( 87°F)
Dewpoint: 23.9°C ( 75°F) [RH = 68%]
Pressure (altimeter):30.09 inches Hg (1019.0 mb)
Winds:from the SE (140 degrees) at 7 MPH (6 knots; 3.1 m/s)
Visibility:10 or more sm (16+ km)
Ceiling:at least 12,000 feet AGL
Clouds: few clouds at 2000 feet AGL, scattered clouds at 2600 feet AGL, scattered clouds at 3300 feet AGL
QC Flag:automated observation with no human augmentation
Text:KHSE 201551Z AUTO 13007KT 10SM FEW018 BKN029 31/24 A3008 RMK AO2 SLP187 T03060239 TSNO
Temperature: 30.6°C ( 87°F)
Dewpoint: 23.9°C ( 75°F) [RH = 68%]
Pressure (altimeter):30.08 inches Hg (1018.7 mb) [Sea level pressure: 1018.7 mb]
Winds:from the SE (130 degrees) at 8 MPH (7 knots; 3.6 m/s)
Visibility:10 or more sm (16+ km)
Ceiling:2900 feet AGL
Clouds: few clouds at 1800 feet AGL, broken clouds at 2900 feet AGL
QC Flag:automated observation with no human augmentation
Text:KHSE 201503Z AUTO 00000KT 10SM BKN018 BKN024 28/23 A3007 RMK AO2 T02780228 TSNO
Temperature: 27.8°C ( 82°F)
Dewpoint: 22.8°C ( 73°F) [RH = 74%]
Pressure (altimeter):30.07 inches Hg (1018.4 mb)
Winds:calm
Visibility:10 or more sm (16+ km)
Ceiling:1800 feet AGL
Clouds: broken clouds at 1800 feet AGL, broken clouds at 2400 feet AGL
QC Flag:automated observation with no human augmentation
Text:KHSE 201451Z AUTO VRB03KT 10SM SCT015 28/23 A3007 RMK AO2 SLP181 T02830228 50000 TSNO
Temperature: 28.3°C ( 83°F)
Dewpoint: 22.8°C ( 73°F) [RH = 72%]
Pressure (altimeter):30.07 inches Hg (1018.4 mb) [Sea level pressure: 1018.1 mb]
Winds:variable direction winds at 3 MPH (3 knots; 1.5 m/s)
Visibility:10 or more sm (16+ km)
Ceiling:at least 12,000 feet AGL
Clouds: scattered clouds at 1500 feet AGL
QC Flag:automated observation with no human augmentation
Text:KHSE 201437Z AUTO 00000KT 10SM FEW015 SCT029 29/23 A3006 RMK AO2 T02890233 TSNO
Temperature: 28.9°C ( 84°F)
Dewpoint: 23.3°C ( 74°F) [RH = 72%]
Pressure (altimeter):30.06 inches Hg (1018.0 mb)
Winds:calm
Visibility:10 or more sm (16+ km)
Ceiling:at least 12,000 feet AGL
Clouds: few clouds at 1500 feet AGL, scattered clouds at 2900 feet AGL
QC Flag:automated observation with no human augmentation
Text:KHSE 201407Z AUTO 34004KT 10SM BKN015 28/23 A3007 RMK AO2 T02780233 TSNO
Temperature: 27.8°C ( 82°F)
Dewpoint: 23.3°C ( 74°F) [RH = 77%]
Pressure (altimeter):30.07 inches Hg (1018.4 mb)
Winds:from the NNW (340 degrees) at 5 MPH (4 knots; 2.1 m/s)
Visibility:10 or more sm (16+ km)
Ceiling:1500 feet AGL
Clouds: broken clouds at 1500 feet AGL
QC Flag:automated observation with no human augmentation
Text:KHSE 201351Z AUTO VRB03KT 10SM FEW016 28/23 A3007 RMK AO2 SLP181 T02780233 TSNO
Temperature: 27.8°C ( 82°F)
Dewpoint: 23.3°C ( 74°F) [RH = 77%]
Pressure (altimeter):30.07 inches Hg (1018.4 mb) [Sea level pressure: 1018.1 mb]
Winds:variable direction winds at 3 MPH (3 knots; 1.5 m/s)
Visibility:10 or more sm (16+ km)
Ceiling:at least 12,000 feet AGL
Clouds: few clouds at 1600 feet AGL
QC Flag:automated observation with no human augmentation
Text:KHSE 201251Z AUTO 00000KT 10SM FEW017 28/23 A3007 RMK AO2 SLP182 T02780228 TSNO
Temperature: 27.8°C ( 82°F)
Dewpoint: 22.8°C ( 73°F) [RH = 74%]
Pressure (altimeter):30.07 inches Hg (1018.4 mb) [Sea level pressure: 1018.2 mb]
Winds:calm
Visibility:10 or more sm (16+ km)
Ceiling:at least 12,000 feet AGL
Clouds: few clouds at 1700 feet AGL
QC Flag:automated observation with no human augmentation
Text:KHSE 201212Z AUTO 00000KT 10SM FEW017 28/24 A3007 RMK AO2 T02830239 TSNO
Temperature: 28.3°C ( 83°F)
Dewpoint: 23.9°C ( 75°F) [RH = 77%]
Pressure (altimeter):30.07 inches Hg (1018.4 mb)
Winds:calm
Visibility:10 or more sm (16+ km)
Ceiling:at least 12,000 feet AGL
Clouds: few clouds at 1700 feet AGL
QC Flag:automated observation with no human augmentation
Text:KHSE 201151Z AUTO 00000KT 10SM BKN019 BKN023 BKN028 28/24 A3007 RMK AO2 SLP181 T02780239 10278 20233 51008 TSNO
Temperature: 27.8°C ( 82°F)
Dewpoint: 23.9°C ( 75°F) [RH = 79%]
Pressure (altimeter):30.07 inches Hg (1018.4 mb) [Sea level pressure: 1018.1 mb]
Winds:calm
Visibility:10 or more sm (16+ km)
Ceiling:1900 feet AGL
Clouds: broken clouds at 1900 feet AGL, broken clouds at 2300 feet AGL, broken clouds at 2800 feet AGL
QC Flag:automated observation with no human augmentation
Text:KHSE 201138Z AUTO 00000KT 10SM FEW016 BKN020 27/24 A3007 RMK AO2 T02720239 TSNO
Temperature: 27.2°C ( 81°F)
Dewpoint: 23.9°C ( 75°F) [RH = 82%]
Pressure (altimeter):30.07 inches Hg (1018.4 mb)
Winds:calm
Visibility:10 or more sm (16+ km)
Ceiling:2000 feet AGL
Clouds: few clouds at 1600 feet AGL, broken clouds at 2000 feet AGL
QC Flag:automated observation with no human augmentation
Text:KHSE 201051Z AUTO 00000KT 10SM CLR 25/24 A3006 RMK AO2 SLP180 T02500239 TSNO
Temperature: 25.0°C ( 77°F)
Dewpoint: 23.9°C ( 75°F) [RH = 94%]
Pressure (altimeter):30.06 inches Hg (1018.0 mb) [Sea level pressure: 1018.0 mb]
Winds:calm
Visibility:10 or more sm (16+ km)
Ceiling:at least 12,000 feet AGL
Clouds:sky clear below 12,000 feet AGL
QC Flag:automated observation with no human augmentation
Text:KHSE 200951Z AUTO 00000KT 10SM CLR 23/22 A3005 RMK AO2 SLP177 T02330222 TSNO
Temperature: 23.3°C ( 74°F)
Dewpoint: 22.2°C ( 72°F) [RH = 94%]
Pressure (altimeter):30.05 inches Hg (1017.7 mb) [Sea level pressure: 1017.7 mb]
Winds:calm
Visibility:10 or more sm (16+ km)
Ceiling:at least 12,000 feet AGL
Clouds:sky clear below 12,000 feet AGL
QC Flag:automated observation with no human augmentation
Text:KHSE 200851Z AUTO 00000KT 10SM CLR 23/22 A3004 RMK AO2 SLP173 T02330217 55005 TSNO
Temperature: 23.3°C ( 74°F)
Dewpoint: 21.7°C ( 71°F) [RH = 91%]
Pressure (altimeter):30.04 inches Hg (1017.4 mb) [Sea level pressure: 1017.3 mb]
Winds:calm
Visibility:10 or more sm (16+ km)
Ceiling:at least 12,000 feet AGL
Clouds:sky clear below 12,000 feet AGL
QC Flag:automated observation with no human augmentation
Text:KHSE 200751Z AUTO 00000KT 10SM CLR 23/22 A3004 RMK AO2 SLP172 T02330217 TSNO
Temperature: 23.3°C ( 74°F)
Dewpoint: 21.7°C ( 71°F) [RH = 91%]
Pressure (altimeter):30.04 inches Hg (1017.4 mb) [Sea level pressure: 1017.2 mb]
Winds:calm
Visibility:10 or more sm (16+ km)
Ceiling:at least 12,000 feet AGL
Clouds:sky clear below 12,000 feet AGL
QC Flag:automated observation with no human augmentation
Text:KHSE 200651Z AUTO 00000KT 10SM CLR 24/22 A3005 RMK AO2 SLP175 T02390222 TSNO
Temperature: 23.9°C ( 75°F)
Dewpoint: 22.2°C ( 72°F) [RH = 90%]
Pressure (altimeter):30.05 inches Hg (1017.7 mb) [Sea level pressure: 1017.5 mb]
Winds:calm
Visibility:10 or more sm (16+ km)
Ceiling:at least 12,000 feet AGL
Clouds:sky clear below 12,000 feet AGL
QC Flag:automated observation with no human augmentation
Text:KHSE 200551Z AUTO 00000KT 10SM CLR 24/23 A3006 RMK AO2 SLP178 T02440228 10278 20244 56010 TSNO
Temperature: 24.4°C ( 76°F)
Dewpoint: 22.8°C ( 73°F) [RH = 91%]
Pressure (altimeter):30.06 inches Hg (1018.0 mb) [Sea level pressure: 1017.8 mb]
Winds:calm
Visibility:10 or more sm (16+ km)
Ceiling:at least 12,000 feet AGL
Clouds:sky clear below 12,000 feet AGL
QC Flag:automated observation with no human augmentation
Text:KHSE 200451Z AUTO 00000KT 10SM CLR 25/23 A3007 RMK AO2 SLP181 T02500228 403110222 TSNO
Temperature: 25.0°C ( 77°F)
Dewpoint: 22.8°C ( 73°F) [RH = 88%]
Pressure (altimeter):30.07 inches Hg (1018.4 mb) [Sea level pressure: 1018.1 mb]
Winds:calm
Visibility:10 or more sm (16+ km)
Ceiling:at least 12,000 feet AGL
Clouds:sky clear below 12,000 feet AGL
QC Flag:automated observation with no human augmentation
Text:KHSE 200351Z AUTO 25003KT 10SM CLR 26/23 A3008 RMK AO2 SLP184 T02610233 TSNO
Temperature: 26.1°C ( 79°F)
Dewpoint: 23.3°C ( 74°F) [RH = 85%]
Pressure (altimeter):30.08 inches Hg (1018.7 mb) [Sea level pressure: 1018.4 mb]
Winds:from the WSW (250 degrees) at 3 MPH (3 knots; 1.5 m/s)
Visibility:10 or more sm (16+ km)
Ceiling:at least 12,000 feet AGL
Clouds:sky clear below 12,000 feet AGL
QC Flag:automated observation with no human augmentation